Time;durP1;ratioP1;P1;durP2;ratioP2;P2;SDS_P1;SDS_P2;PMS_P1;PMS_P2;Temp;Humidity;BMP_temperature;BMP_pressure;BME280_temperature;BME280_humidity;BME280_pressure;Samples;Min_cycle;Max_cycle;Signal;HPM_P1;HPM_P2
2023/05/17 00:02:46;;;;;;;2.92;2.33;;;;;;;22.09;57.56;99467.53;39971703;29;20050;-79
2023/05/17 00:22:47;;;;;;;2.60;2.40;;;;;;;22.05;57.63;99469.63;39976632;29;20054;-78
2023/05/17 00:42:47;;;;;;;4.25;2.20;;;;;;;22.07;57.68;99458.97;39956178;29;20061;-78
2023/05/17 01:02:48;;;;;;;2.72;2.17;;;;;;;22.02;57.29;99462.03;39968499;29;20463;-78
2023/05/17 01:23:10;;;;;;;2.78;2.10;;;;;;;22.02;57.50;99466.47;39933398;29;20050;-78
2023/05/17 01:43:22;;;;;;;2.78;2.03;;;;;;;22.01;57.22;99443.75;39964821;29;20050;-78
2023/05/17 02:03:23;;;;;;;2.85;2.35;;;;;;;21.98;57.68;99449.28;39949488;29;20050;-80
2023/05/17 02:23:25;;;;;;;2.20;2.00;;;;;;;21.98;57.53;99452.75;39959780;29;20053;-78
2023/05/17 02:43:25;;;;;;;3.72;2.55;;;;;;;21.92;57.38;99477.06;39926862;29;20538;-78
2023/05/17 03:03:26;;;;;;;3.63;2.08;;;;;;;21.94;57.35;99482.22;39927777;29;20515;-78
2023/05/17 03:23:26;;;;;;;2.42;1.90;;;;;;;21.94;57.44;99503.28;39955061;29;20073;-79
2023/05/17 03:43:27;;;;;;;3.60;2.10;;;;;;;21.96;57.68;99503.97;39954056;29;20056;-75
2023/05/17 04:03:28;;;;;;;3.50;2.10;;;;;;;22.02;57.87;99551.66;39957292;29;20041;-75
2023/05/17 04:23:29;;;;;;;6.15;2.33;;;;;;;22.02;58.23;99549.03;39939756;29;20053;-76
2023/05/17 04:43:32;;;;;;;10.32;3.10;;;;;;;22.09;58.33;99594.09;39931814;29;20062;-76
2023/05/17 05:03:32;;;;;;;13.15;4.15;;;;;;;22.11;58.59;99610.59;39917294;29;20054;-76
2023/05/17 05:23:33;;;;;;;11.50;4.05;;;;;;;22.11;58.45;99622.97;39957580;29;20054;-76
2023/05/17 05:43:34;;;;;;;11.15;3.85;;;;;;;22.12;59.17;99646.53;39976740;29;20077;-80
2023/05/17 06:03:35;;;;;;;12.63;5.22;;;;;;;22.13;57.82;99644.72;39960646;29;20132;-79
2023/05/17 06:23:36;;;;;;;8.07;4.97;;;;;;;22.05;57.12;99656.81;39976002;29;20112;-80
2023/05/17 06:43:37;;;;;;;12.07;5.90;;;;;;;22.03;57.26;99668.47;39981025;29;20046;-80
2023/05/17 07:03:37;;;;;;;10.65;6.85;;;;;;;22.03;57.34;99693.06;40000410;29;20050;-80
2023/05/17 07:23:38;;;;;;;10.13;6.78;;;;;;;21.99;56.66;99704.84;40006110;29;20042;-80
2023/05/17 07:43:39;;;;;;;12.43;5.63;;;;;;;21.96;57.42;99710.41;39986668;29;20053;-78
2023/05/17 08:03:46;;;;;;;10.05;4.80;;;;;;;21.98;57.55;99716.34;39954673;29;20112;-75
2023/05/17 08:23:46;;;;;;;10.55;4.80;;;;;;;21.97;57.54;99745.50;39966440;29;20061;-77
2023/05/17 08:43:50;;;;;;;7.93;4.90;;;;;;;21.97;57.47;99741.06;40011290;29;20153;-75
2023/05/17 09:03:51;;;;;;;7.43;4.57;;;;;;;21.97;57.36;99738.44;40023167;29;20113;-75
2023/05/17 09:23:53;;;;;;;11.48;4.65;;;;;;;22.05;57.03;99738.53;39977017;29;20486;-75
2023/05/17 09:43:58;;;;;;;6.68;4.20;;;;;;;22.09;57.06;99760.19;39956764;29;20133;-75
2023/05/17 10:04:01;;;;;;;5.90;3.90;;;;;;;22.10;56.66;99769.75;39938861;29;20133;-75
2023/05/17 10:24:02;;;;;;;7.63;4.10;;;;;;;22.15;56.47;99774.63;39934484;29;20062;-76
2023/05/17 10:44:06;;;;;;;5.55;4.03;;;;;;;22.25;56.25;99775.44;39960901;29;20080;-73
2023/05/17 11:04:24;;;;;;;6.13;4.13;;;;;;;22.32;56.17;99791.53;39947851;29;20466;-75
2023/05/17 11:24:27;;;;;;;5.20;4.55;;;;;;;22.36;56.30;99811.38;39947295;29;20070;-76
2023/05/17 11:44:29;;;;;;;6.03;5.03;;;;;;;22.43;56.10;99827.53;39990640;29;20058;-75
2023/05/17 12:04:36;;;;;;;7.30;5.53;;;;;;;22.45;55.81;99842.25;39968835;29;20061;-75
2023/05/17 12:24:38;;;;;;;5.95;5.32;;;;;;;22.44;55.96;99858.22;39947395;29;20078;-75
2023/05/17 12:44:38;;;;;;;6.93;5.50;;;;;;;22.46;55.88;99862.38;39965124;29;20051;-75
2023/05/17 13:04:39;;;;;;;6.95;6.00;;;;;;;22.50;55.78;99876.94;39980169;29;20072;-75
2023/05/17 13:24:42;;;;;;;13.75;7.70;;;;;;;22.81;56.04;99886.50;39971872;29;20130;-75
2023/05/17 13:44:42;;;;;;;11.30;7.85;;;;;;;23.01;56.03;99866.16;39988952;29;20092;-76
2023/05/17 14:04:43;;;;;;;11.07;7.07;;;;;;;23.18;55.60;99877.81;39951329;29;20064;-79
2023/05/17 14:24:43;;;;;;;9.70;7.50;;;;;;;23.28;54.96;99905.03;39970360;29;20046;-76
2023/05/17 14:44:43;;;;;;;12.40;7.97;;;;;;;23.20;55.02;99923.38;39968275;29;20481;-81
2023/05/17 15:04:44;;;;;;;11.45;7.85;;;;;;;23.15;54.87;99947.56;39961898;29;20420;-82
2023/05/17 15:24:44;;;;;;;11.52;7.90;;;;;;;23.02;55.01;99979.56;39986395;29;20414;-82
2023/05/17 15:44:45;;;;;;;10.30;8.13;;;;;;;22.91;55.16;99987.63;40016102;29;20648;-82
2023/05/17 16:04:45;;;;;;;10.63;7.85;;;;;;;22.81;55.13;100011.41;39968252;29;20085;-82
2023/05/17 16:24:46;;;;;;;10.02;7.18;;;;;;;22.68;54.67;100013.47;39968934;29;20661;-81
2023/05/17 16:44:46;;;;;;;13.20;6.95;;;;;;;22.77;56.05;100049.59;39941459;29;20057;-81
2023/05/17 17:04:46;;;;;;;10.18;6.18;;;;;;;22.79;57.46;100070.56;39937353;29;20057;-84
2023/05/17 17:24:47;;;;;;;6.85;5.57;;;;;;;22.79;57.80;100078.47;39962082;29;20050;-81
2023/05/17 17:44:47;;;;;;;6.35;5.10;;;;;;;22.77;57.48;100097.09;39944312;29;20057;-83
2023/05/17 18:04:48;;;;;;;4.05;3.30;;;;;;;22.71;54.14;100100.28;39938339;29;20058;-81
2023/05/17 18:24:50;;;;;;;3.15;2.30;;;;;;;22.58;51.88;100120.81;39950998;29;20050;-81
2023/05/17 18:44:50;;;;;;;3.33;1.80;;;;;;;22.47;49.58;100122.59;39960663;29;20046;-81
2023/05/17 19:04:51;;;;;;;1.55;1.40;;;;;;;22.33;49.82;100125.56;39933632;29;20129;-79
2023/05/17 19:24:57;;;;;;;3.88;2.00;;;;;;;22.34;52.24;100154.44;39944099;29;20042;-79
2023/05/17 19:44:57;;;;;;;4.50;2.25;;;;;;;22.38;52.86;100186.69;39906642;29;20129;-74
2023/05/17 20:05:00;;;;;;;4.82;2.92;;;;;;;22.27;53.80;100202.59;39935143;29;20058;-75
2023/05/17 20:25:01;;;;;;;4.38;3.60;;;;;;;22.26;53.71;100208.81;39986290;29;20650;-75
2023/05/17 20:45:04;;;;;;;7.85;5.07;;;;;;;22.28;53.51;100223.53;39976620;29;20127;-75
2023/05/17 21:05:04;;;;;;;5.38;4.30;;;;;;;22.25;53.23;100246.72;39966573;29;20058;-74
2023/05/17 21:25:05;;;;;;;4.82;4.32;;;;;;;22.27;53.32;100261.44;39958085;29;20081;-74
2023/05/17 21:45:06;;;;;;;6.55;4.43;;;;;;;22.25;53.44;100268.63;39958249;29;20103;-74
2023/05/17 22:05:07;;;;;;;4.93;3.88;;;;;;;22.20;53.42;100270.81;39960031;29;20134;-74
2023/05/17 22:25:08;;;;;;;4.78;3.97;;;;;;;22.23;53.42;100289.03;39954257;29;20499;-74
2023/05/17 22:45:11;;;;;;;5.03;3.75;;;;;;;22.21;53.36;100301.50;39949283;29;20057;-75
2023/05/17 23:05:11;;;;;;;4.18;3.53;;;;;;;22.19;53.19;100312.19;39943115;29;20061;-75
2023/05/17 23:25:14;;;;;;;3.50;3.20;;;;;;;22.17;53.26;100321.19;39947195;29;20191;-75
2023/05/17 23:45:15;;;;;;;3.20;2.80;;;;;;;22.10;53.63;100327.94;39962565;29;20144;-75
